Time;durP1;ratioP1;P1;durP2;ratioP2;P2;SDS_P1;SDS_P2;PMS_P1;PMS_P2;Temp;Humidity;BMP_temperature;BMP_pressure;BME280_temperature;BME280_humidity;BME280_pressure;Samples;Min_cycle;Max_cycle;Signal;HPM_P1;HPM_P2
2022/04/05 00:01:09;;;;;;;8.68;6.82;;;5.60;99.70;;;;;;4916275;29;20028;-86
2022/04/05 00:04:02;;;;;;;11.18;6.70;;;5.60;99.80;;;;;;4907124;29;20035;-86
2022/04/05 00:06:28;;;;;;;8.77;6.53;;;5.60;99.70;;;;;;4918743;29;20044;-86
2022/04/05 00:09:09;;;;;;;7.40;6.25;;;5.60;99.70;;;;;;4919497;29;20032;-87
2022/04/05 00:11:38;;;;;;;12.50;7.20;;;5.60;99.70;;;;;;4920488;29;20175;-86
2022/04/05 00:14:09;;;;;;;8.32;6.90;;;5.70;99.60;;;;;;4930357;29;20028;-86
2022/04/05 00:16:40;;;;;;;8.52;7.13;;;5.60;99.60;;;;;;4943269;28;20063;-86
2022/04/05 00:31:05;;;;;;;9.38;6.72;;;5.60;99.60;;;;;;4939907;29;20052;-86
2022/04/05 01:41:03;;;;;;;10.98;6.97;;;5.30;99.90;;;;;;4985950;23;20382;-85
2022/04/05 01:43:29;;;;;;;9.10;6.47;;;5.30;99.90;;;;;;4953343;29;20135;-86
2022/04/05 01:45:55;;;;;;;12.23;7.22;;;5.30;99.90;;;;;;4955257;29;20063;-86
2022/04/05 01:48:20;;;;;;;8.07;6.25;;;5.40;99.90;;;;;;4953663;29;20087;-87
2022/04/05 01:50:46;;;;;;;11.75;6.78;;;5.30;99.90;;;;;;4950651;29;20023;-86
2022/04/05 01:53:12;;;;;;;8.43;6.70;;;5.30;99.90;;;;;;4943296;29;20034;-86
2022/04/05 01:55:37;;;;;;;7.88;6.47;;;5.30;99.90;;;;;;4944665;29;20032;-85
2022/04/05 01:58:03;;;;;;;8.93;6.00;;;5.40;99.90;;;;;;4935600;29;20030;-86
2022/04/05 02:00:29;;;;;;;9.70;6.72;;;5.30;99.90;;;;;;4947943;28;20027;-86
2022/04/05 02:02:54;;;;;;;10.90;6.57;;;5.20;99.90;;;;;;4942090;29;20087;-86
2022/04/05 02:05:20;;;;;;;8.63;5.95;;;5.30;99.90;;;;;;4941679;29;20038;-86
2022/04/05 02:07:45;;;;;;;10.98;6.68;;;5.30;99.90;;;;;;4943305;29;20390;-87
2022/04/05 02:10:11;;;;;;;9.05;7.03;;;5.40;99.90;;;;;;4941793;29;20122;-86
2022/04/05 02:12:37;;;;;;;9.32;6.97;;;5.30;99.90;;;;;;4942410;29;20478;-86
2022/04/05 02:15:03;;;;;;;9.30;6.38;;;5.30;99.90;;;;;;4942333;29;20434;-86
2022/04/05 02:17:28;;;;;;;8.57;6.72;;;5.20;99.90;;;;;;4941422;29;20019;-86
2022/04/05 02:19:56;;;;;;;9.75;6.35;;;5.20;99.90;;;;;;4942104;29;20039;-86
2022/04/05 02:22:22;;;;;;;10.32;7.35;;;5.30;99.90;;;;;;4941750;29;20038;-85
2022/04/05 02:24:48;;;;;;;11.70;7.45;;;5.20;99.90;;;;;;4940573;29;20032;-86
2022/04/05 02:27:13;;;;;;;12.63;7.30;;;5.20;99.90;;;;;;4942815;29;20059;-87
2022/04/05 02:29:39;;;;;;;11.45;7.20;;;5.20;99.90;;;;;;4932306;29;20546;-85
2022/04/05 02:32:04;;;;;;;13.43;7.93;;;5.20;99.90;;;;;;4926664;29;20371;-87
2022/04/05 02:34:30;;;;;;;9.27;7.35;;;5.20;99.90;;;;;;4939744;29;20032;-86
2022/04/05 02:36:56;;;;;;;11.05;6.88;;;5.20;99.90;;;;;;4952850;29;20027;-85
2022/04/05 02:39:21;;;;;;;10.15;7.05;;;5.10;99.90;;;;;;4949526;29;20107;-86
2022/04/05 02:41:47;;;;;;;10.70;7.43;;;5.10;99.90;;;;;;4946675;28;20020;-86
2022/04/05 02:44:13;;;;;;;13.20;8.05;;;5.10;99.90;;;;;;4940893;29;20040;-86
2022/04/05 02:46:38;;;;;;;11.15;7.43;;;5.20;99.90;;;;;;4943271;29;20031;-86
2022/04/05 02:49:04;;;;;;;9.30;6.72;;;5.10;99.90;;;;;;4942296;29;20026;-86
2022/04/05 02:51:29;;;;;;;11.40;7.82;;;5.00;99.90;;;;;;4942899;29;20031;-85
2022/04/05 02:53:55;;;;;;;11.52;7.85;;;5.00;99.90;;;;;;4944188;29;20131;-87
2022/04/05 02:56:21;;;;;;;12.48;7.93;;;5.00;99.90;;;;;;4947848;29;20023;-85
2022/04/05 02:58:48;;;;;;;12.43;8.00;;;5.00;99.90;;;;;;4949613;29;20047;-85
2022/04/05 03:01:14;;;;;;;12.70;8.18;;;5.00;99.90;;;;;;4947812;29;20564;-86
2022/04/05 03:03:39;;;;;;;11.75;8.35;;;5.00;99.90;;;;;;4938504;29;20060;-86
2022/04/05 03:06:05;;;;;;;11.57;8.40;;;5.00;99.90;;;;;;4928548;29;20027;-85
2022/04/05 03:08:31;;;;;;;12.15;8.80;;;5.00;99.90;;;;;;4935771;29;20034;-86
2022/04/05 03:10:56;;;;;;;11.82;8.30;;;4.90;99.90;;;;;;4946744;29;20110;-85
2022/04/05 03:13:22;;;;;;;12.48;8.50;;;4.90;99.90;;;;;;4948241;29;20028;-85
2022/04/05 03:15:47;;;;;;;14.27;8.70;;;4.90;99.90;;;;;;4945699;29;20020;-87
2022/04/05 03:18:13;;;;;;;14.70;8.75;;;4.80;99.90;;;;;;4946349;29;20039;-85
2022/04/05 03:20:38;;;;;;;13.27;9.00;;;4.90;99.90;;;;;;4945122;29;20079;-86
2022/04/05 03:23:05;;;;;;;12.13;8.68;;;4.90;99.90;;;;;;4946849;29;20036;-85
2022/04/05 03:25:30;;;;;;;11.43;8.77;;;4.80;99.90;;;;;;4946409;29;20031;-86
2022/04/05 03:28:00;;;;;;;14.18;9.45;;;4.80;99.90;;;;;;4939902;29;20051;-85
2022/04/05 03:30:28;;;;;;;14.10;9.50;;;4.70;99.90;;;;;;4946239;29;20027;-86
2022/04/05 03:33:17;;;;;;;12.35;9.10;;;4.70;99.90;;;;;;4937511;29;20076;-86
2022/04/05 03:35:49;;;;;;;16.05;9.50;;;4.80;99.90;;;;;;4937069;29;20092;-85
2022/04/05 03:38:25;;;;;;;14.57;9.93;;;4.70;99.90;;;;;;4934234;29;20066;-86
2022/04/05 03:41:03;;;;;;;14.73;9.20;;;4.70;99.90;;;;;;4945115;29;20641;-86
2022/04/05 03:44:09;;;;;;;13.88;9.43;;;4.60;99.90;;;;;;4944041;29;20059;-85
2022/04/05 03:47:08;;;;;;;;;;;;;;;;;;;;;
2022/04/05 03:50:05;;;;;;;16.75;9.27;;;4.40;99.90;;;;;;4920493;29;20029;-86
2022/04/05 04:28:33;;;;;;;17.95;10.70;;;4.20;99.90;;;;;;4919156;29;20360;-86
2022/04/05 04:31:37;;;;;;;15.85;10.48;;;4.10;99.90;;;;;;4874711;29;20144;-86
2022/04/05 04:34:53;;;;;;;17.05;10.40;;;4.30;99.90;;;;;;4919001;29;20495;-86
2022/04/05 04:38:12;;;;;;;15.65;10.65;;;4.20;99.90;;;;;;4919144;29;20036;-86
2022/04/05 05:03:41;;;;;;;21.50;12.63;;;4.10;99.90;;;;;;4919802;29;20060;-86
2022/04/05 05:06:32;;;;;;;18.65;12.48;;;4.10;99.90;;;;;;4913463;29;20123;-86
2022/04/05 05:13:07;;;;;;;17.00;11.18;;;4.10;99.90;;;;;;4894179;29;20040;-86
2022/04/05 05:20:03;;;;;;;17.88;10.85;;;4.10;99.90;;;;;;4885057;29;20032;-85
2022/04/05 05:26:46;;;;;;;;;;;;;;;;;;;;;
2022/04/05 05:51:33;;;;;;;15.88;10.95;;;4.40;99.90;;;;;;5280672;23;20059;-91
2022/04/05 05:54:01;;;;;;;14.60;11.13;;;4.60;99.90;;;;;;4959989;29;20032;-92
2022/04/05 05:56:27;;;;;;;16.30;11.25;;;4.50;99.90;;;;;;4960469;29;20035;-91
2022/04/05 05:58:53;;;;;;;15.70;11.27;;;4.60;99.90;;;;;;4960927;29;20024;-92
2022/04/05 06:01:18;;;;;;;14.38;10.40;;;4.70;99.90;;;;;;4967011;28;20047;-92
2022/04/05 06:03:53;;;;;;;19.35;10.93;;;4.60;99.90;;;;;;4964623;29;20054;-92
2022/04/05 06:06:22;;;;;;;17.35;12.13;;;4.60;99.90;;;;;;4963045;29;20378;-92
2022/04/05 06:08:47;;;;;;;17.95;11.30;;;4.60;99.90;;;;;;4963957;29;20046;-91
2022/04/05 06:11:13;;;;;;;17.27;11.27;;;4.70;99.90;;;;;;4958311;29;20039;-91
2022/04/05 06:13:42;;;;;;;21.25;12.65;;;4.60;99.90;;;;;;4969492;29;20035;-92
2022/04/05 06:16:08;;;;;;;15.88;11.27;;;4.60;99.90;;;;;;4978113;28;20035;-92
2022/04/05 06:18:35;;;;;;;16.45;11.85;;;4.70;99.90;;;;;;4976883;28;20092;-92
2022/04/05 06:21:03;;;;;;;16.25;10.82;;;4.70;99.90;;;;;;4973051;28;20042;-92
2022/04/05 06:23:34;;;;;;;14.98;10.35;;;4.70;99.90;;;;;;4964572;29;20031;-92
2022/04/05 06:26:25;;;;;;;13.50;10.00;;;4.80;99.90;;;;;;4971543;28;20031;-93
2022/04/05 06:29:07;;;;;;;15.82;11.75;;;4.70;99.90;;;;;;4976906;28;20024;-92
2022/04/05 07:11:31;;;;;;;18.67;12.07;;;4.90;99.90;;;;;;5165623;23;20062;-90
2022/04/05 07:13:57;;;;;;;19.58;12.30;;;4.90;99.90;;;;;;4944712;29;20633;-91
2022/04/05 07:16:22;;;;;;;17.98;11.75;;;5.00;99.90;;;;;;4936263;29;20024;-91
2022/04/05 07:18:49;;;;;;;19.50;13.52;;;4.90;99.90;;;;;;4937307;29;20020;-90
2022/04/05 07:21:15;;;;;;;17.92;11.40;;;4.90;99.90;;;;;;4936871;29;20032;-90
2022/04/05 07:23:44;;;;;;;19.75;11.82;;;5.00;99.90;;;;;;4937164;29;20028;-90
2022/04/05 07:26:10;;;;;;;17.58;12.05;;;5.00;99.90;;;;;;4951441;29;20031;-90
2022/04/05 07:28:36;;;;;;;20.10;13.65;;;5.00;99.90;;;;;;4946476;29;20126;-91
2022/04/05 07:31:03;;;;;;;19.83;12.88;;;5.10;99.90;;;;;;4945035;29;20073;-88
2022/04/05 07:33:28;;;;;;;21.67;12.27;;;5.10;99.90;;;;;;4945299;29;20028;-89
2022/04/05 07:35:57;;;;;;;16.88;11.80;;;5.10;99.90;;;;;;4939802;29;20063;-90
2022/04/05 07:39:00;;;;;;;20.27;11.35;;;5.10;99.90;;;;;;4960779;28;20035;-92
2022/04/05 07:41:26;;;;;;;17.27;11.18;;;5.10;99.90;;;;;;4959815;28;20451;-89
2022/04/05 09:59:07;;;;;;;12.90;9.20;;;6.50;99.90;;;;;;4934785;29;20039;-90
2022/04/05 10:02:06;;;;;;;;;;;;;;;;;;;;;
2022/04/05 10:04:38;;;;;;;13.07;8.55;;;6.70;99.90;;;;;;4921607;29;20415;-90
2022/04/05 10:07:13;;;;;;;14.02;10.05;;;6.70;99.90;;;;;;4933087;29;20102;-90
2022/04/05 10:10:04;;;;;;;15.50;9.68;;;6.80;99.90;;;;;;4931630;29;20050;-91
2022/04/05 10:13:09;;;;;;;15.43;9.88;;;6.80;99.90;;;;;;4929437;29;20040;-90
2022/04/05 10:16:18;;;;;;;12.70;8.90;;;6.80;99.90;;;;;;4920226;29;20020;-91
2022/04/05 10:19:13;;;;;;;13.30;9.50;;;6.80;99.90;;;;;;4942857;28;20511;-91
2022/04/05 10:21:52;;;;;;;13.15;9.35;;;6.90;99.90;;;;;;4933161;29;20127;-92
2022/04/05 10:24:22;;;;;;;14.25;8.80;;;6.90;99.90;;;;;;4944158;29;20032;-93
2022/04/05 10:27:21;;;;;;;13.60;9.57;;;6.90;99.90;;;;;;4926155;28;20039;-91
2022/04/05 14:22:54;;;;;;;5.75;4.80;;;9.40;99.90;;;;;;4924945;29;20119;-89
2022/04/05 14:25:20;;;;;;;6.70;4.30;;;9.40;99.90;;;;;;4927330;29;20024;-90
2022/04/05 14:27:46;;;;;;;5.43;4.90;;;9.50;99.90;;;;;;4926527;29;20035;-90
2022/04/05 14:30:12;;;;;;;6.07;4.63;;;9.50;99.90;;;;;;4932028;29;20036;-91
2022/04/05 14:32:38;;;;;;;5.00;4.50;;;9.40;99.90;;;;;;4928750;29;20031;-92
2022/04/05 14:35:04;;;;;;;5.28;4.50;;;9.50;99.90;;;;;;4932347;29;20412;-90
2022/04/05 14:37:29;;;;;;;5.85;4.78;;;9.40;99.90;;;;;;4934526;29;20038;-91
2022/04/05 14:39:55;;;;;;;6.25;4.70;;;9.40;99.90;;;;;;4934851;29;20023;-91
2022/04/05 14:42:20;;;;;;;6.53;4.57;;;9.30;99.90;;;;;;4933428;29;20428;-90
2022/04/05 14:44:46;;;;;;;7.28;5.18;;;9.30;99.90;;;;;;4937255;29;20024;-90
2022/04/05 14:47:12;;;;;;;6.45;5.00;;;9.30;99.90;;;;;;4933913;29;20027;-90
2022/04/05 15:10:19;;;;;;;8.45;5.65;;;9.20;99.90;;;;;;4920286;29;20052;-90
2022/04/05 15:12:46;;;;;;;6.35;5.18;;;9.10;99.90;;;;;;4924595;29;20071;-90
2022/04/05 15:15:13;;;;;;;7.30;5.65;;;9.20;99.90;;;;;;4933467;29;20481;-89
2022/04/05 15:17:38;;;;;;;12.07;7.53;;;9.20;99.90;;;;;;4935106;29;20026;-89
2022/04/05 15:20:06;;;;;;;7.97;5.88;;;9.30;99.90;;;;;;4935174;29;20024;-90
2022/04/05 15:22:32;;;;;;;6.95;5.47;;;9.30;99.90;;;;;;4932935;29;20628;-90
2022/04/05 15:24:57;;;;;;;6.30;5.13;;;9.30;99.90;;;;;;4932223;29;20043;-89
2022/04/05 15:27:23;;;;;;;8.57;5.38;;;9.40;99.90;;;;;;4934567;29;20079;-89
2022/04/05 15:30:02;;;;;;;7.93;5.60;;;9.40;99.90;;;;;;4948013;28;20043;-92
2022/04/05 15:32:28;;;;;;;6.82;5.60;;;9.30;99.90;;;;;;4950808;28;20111;-91
2022/04/05 15:34:57;;;;;;;9.05;6.05;;;9.50;99.90;;;;;;4949352;28;20043;-91
2022/04/05 15:37:25;;;;;;;7.90;5.70;;;9.40;99.90;;;;;;4948554;29;20039;-92
2022/04/05 15:40:11;;;;;;;8.18;6.35;;;9.40;99.90;;;;;;4937074;28;20036;-92
2022/04/05 15:42:43;;;;;;;7.15;5.90;;;9.30;99.90;;;;;;4931284;29;20405;-92
2022/04/05 15:45:14;;;;;;;9.25;6.68;;;9.40;99.90;;;;;;4938056;28;20032;-92
2022/04/05 15:47:41;;;;;;;10.23;7.00;;;9.30;99.90;;;;;;4940473;29;20043;-93
2022/04/05 15:50:07;;;;;;;12.38;8.93;;;9.30;99.90;;;;;;4942049;28;20036;-92
2022/04/05 15:52:35;;;;;;;8.82;6.60;;;9.30;99.90;;;;;;4936489;29;20079;-91
2022/04/05 15:55:01;;;;;;;9.32;6.40;;;9.40;99.90;;;;;;4932669;28;20039;-91
2022/04/05 15:57:27;;;;;;;8.93;6.18;;;9.30;99.90;;;;;;4935554;29;21769;-89
2022/04/05 15:59:52;;;;;;;9.23;7.10;;;9.30;99.90;;;;;;4925050;29;20034;-89
2022/04/05 16:02:18;;;;;;;6.75;6.05;;;9.40;99.90;;;;;;4935462;29;20028;-89
2022/04/05 16:04:44;;;;;;;5.88;5.25;;;9.40;99.90;;;;;;4922047;29;20020;-89
2022/04/05 16:54:51;;;;;;;25.48;11.73;;;9.20;99.90;;;;;;4835965;29;20080;-87
2022/04/05 17:21:46;;;;;;;9.52;6.88;;;9.30;99.90;;;;;;4886739;29;20492;-86
2022/04/05 19:27:24;;;;;;;13.55;10.60;;;9.00;99.90;;;;;;4937111;29;20126;-86
